sensor_id;sensor_type;location;lat;lon;timestamp;temperature;humidity
13982;DHT22;7065;50.880;5.502;2024-01-06T00:00:36;6.80;99.90
13982;DHT22;7065;50.880;5.502;2024-01-06T00:03:02;6.80;99.90
13982;DHT22;7065;50.880;5.502;2024-01-06T00:05:28;6.80;99.90
13982;DHT22;7065;50.880;5.502;2024-01-06T00:07:54;6.80;99.90
13982;DHT22;7065;50.880;5.502;2024-01-06T00:10:19;6.90;99.90
13982;DHT22;7065;50.880;5.502;2024-01-06T00:12:45;6.90;99.90
13982;DHT22;7065;50.880;5.502;2024-01-06T00:15:11;6.90;99.90
13982;DHT22;7065;50.880;5.502;2024-01-06T00:17:36;6.80;99.90
13982;DHT22;7065;50.880;5.502;2024-01-06T00:20:03;6.90;99.90
13982;DHT22;7065;50.880;5.502;2024-01-06T00:22:29;6.90;99.90
13982;DHT22;7065;50.880;5.502;2024-01-06T00:24:56;6.90;99.90
13982;DHT22;7065;50.880;5.502;2024-01-06T00:27:21;6.90;99.90
13982;DHT22;7065;50.880;5.502;2024-01-06T00:29:47;6.90;99.90
13982;DHT22;7065;50.880;5.502;2024-01-06T00:32:13;6.90;99.90
13982;DHT22;7065;50.880;5.502;2024-01-06T00:34:38;6.90;99.90
13982;DHT22;7065;50.880;5.502;2024-01-06T00:37:05;6.90;99.90
13982;DHT22;7065;50.880;5.502;2024-01-06T00:39:31;6.80;99.90
13982;DHT22;7065;50.880;5.502;2024-01-06T00:41:56;6.90;99.90
13982;DHT22;7065;50.880;5.502;2024-01-06T00:44:22;6.90;99.90
13982;DHT22;7065;50.880;5.502;2024-01-06T00:46:48;6.90;99.90
13982;DHT22;7065;50.880;5.502;2024-01-06T00:49:13;6.80;99.90
13982;DHT22;7065;50.880;5.502;2024-01-06T00:51:39;6.80;99.90
13982;DHT22;7065;50.880;5.502;2024-01-06T00:54:05;6.90;99.90
13982;DHT22;7065;50.880;5.502;2024-01-06T00:56:30;6.80;99.90
13982;DHT22;7065;50.880;5.502;2024-01-06T00:58:56;6.80;99.90
13982;DHT22;7065;50.880;5.502;2024-01-06T01:01:22;6.80;99.90
13982;DHT22;7065;50.880;5.502;2024-01-06T01:03:47;6.80;99.90
13982;DHT22;7065;50.880;5.502;2024-01-06T01:06:13;6.90;99.90
13982;DHT22;7065;50.880;5.502;2024-01-06T01:08:39;6.80;99.90
13982;DHT22;7065;50.880;5.502;2024-01-06T01:11:06;6.80;99.90
13982;DHT22;7065;50.880;5.502;2024-01-06T01:13:31;6.80;99.90
13982;DHT22;7065;50.880;5.502;2024-01-06T01:15:57;6.80;99.90
13982;DHT22;7065;50.880;5.502;2024-01-06T01:18:23;6.80;99.90
13982;DHT22;7065;50.880;5.502;2024-01-06T01:20:48;6.80;99.90
13982;DHT22;7065;50.880;5.502;2024-01-06T01:23:14;6.80;99.90
13982;DHT22;7065;50.880;5.502;2024-01-06T01:25:40;6.80;99.90
13982;DHT22;7065;50.880;5.502;2024-01-06T01:28:05;6.80;99.90
13982;DHT22;7065;50.880;5.502;2024-01-06T01:30:31;6.90;99.90
13982;DHT22;7065;50.880;5.502;2024-01-06T01:32:58;6.80;99.90
13982;DHT22;7065;50.880;5.502;2024-01-06T01:35:23;6.80;99.90
13982;DHT22;7065;50.880;5.502;2024-01-06T01:37:49;6.80;99.90
13982;DHT22;7065;50.880;5.502;2024-01-06T01:40:15;6.80;99.90
13982;DHT22;7065;50.880;5.502;2024-01-06T01:42:42;6.80;99.90
13982;DHT22;7065;50.880;5.502;2024-01-06T01:45:08;6.80;99.90
13982;DHT22;7065;50.880;5.502;2024-01-06T01:47:34;6.80;99.90
13982;DHT22;7065;50.880;5.502;2024-01-06T01:50:01;6.80;99.90
13982;DHT22;7065;50.880;5.502;2024-01-06T01:52:27;6.80;99.90
13982;DHT22;7065;50.880;5.502;2024-01-06T01:54:53;6.70;99.90
13982;DHT22;7065;50.880;5.502;2024-01-06T01:57:20;6.80;99.90
13982;DHT22;7065;50.880;5.502;2024-01-06T01:59:47;6.80;99.90
13982;DHT22;7065;50.880;5.502;2024-01-06T02:02:13;6.70;99.90
13982;DHT22;7065;50.880;5.502;2024-01-06T02:04:39;6.70;99.90
13982;DHT22;7065;50.880;5.502;2024-01-06T02:07:05;6.70;99.90
13982;DHT22;7065;50.880;5.502;2024-01-06T02:09:30;6.70;99.90
13982;DHT22;7065;50.880;5.502;2024-01-06T02:11:59;6.70;99.90
13982;DHT22;7065;50.880;5.502;2024-01-06T02:14:25;6.60;99.90
13982;DHT22;7065;50.880;5.502;2024-01-06T02:16:50;6.70;99.90
13982;DHT22;7065;50.880;5.502;2024-01-06T02:19:16;6.70;99.90
13982;DHT22;7065;50.880;5.502;2024-01-06T02:21:52;6.60;99.90
13982;DHT22;7065;50.880;5.502;2024-01-06T02:24:18;6.60;99.90
13982;DHT22;7065;50.880;5.502;2024-01-06T02:26:43;6.60;99.90
13982;DHT22;7065;50.880;5.502;2024-01-06T02:29:09;6.60;99.90
13982;DHT22;7065;50.880;5.502;2024-01-06T02:31:35;6.60;99.90
13982;DHT22;7065;50.880;5.502;2024-01-06T02:34:00;6.60;99.90
13982;DHT22;7065;50.880;5.502;2024-01-06T02:36:26;6.60;99.90
13982;DHT22;7065;50.880;5.502;2024-01-06T02:38:52;6.60;99.90
13982;DHT22;7065;50.880;5.502;2024-01-06T02:41:19;6.60;99.90
13982;DHT22;7065;50.880;5.502;2024-01-06T02:43:44;6.60;99.90
13982;DHT22;7065;50.880;5.502;2024-01-06T02:46:10;6.60;99.90
13982;DHT22;7065;50.880;5.502;2024-01-06T02:48:36;6.60;99.90
13982;DHT22;7065;50.880;5.502;2024-01-06T02:51:01;6.60;99.90
13982;DHT22;7065;50.880;5.502;2024-01-06T02:53:27;6.60;99.90
13982;DHT22;7065;50.880;5.502;2024-01-06T02:55:53;6.60;99.90
13982;DHT22;7065;50.880;5.502;2024-01-06T02:58:19;6.60;99.90
13982;DHT22;7065;50.880;5.502;2024-01-06T03:00:44;6.60;99.90
13982;DHT22;7065;50.880;5.502;2024-01-06T03:03:10;6.60;99.90
13982;DHT22;7065;50.880;5.502;2024-01-06T03:05:36;6.60;99.90
13982;DHT22;7065;50.880;5.502;2024-01-06T03:08:03;6.60;99.90
13982;DHT22;7065;50.880;5.502;2024-01-06T03:10:29;6.60;99.90
13982;DHT22;7065;50.880;5.502;2024-01-06T03:12:55;6.60;99.90
13982;DHT22;7065;50.880;5.502;2024-01-06T03:15:20;6.60;99.90
13982;DHT22;7065;50.880;5.502;2024-01-06T03:17:46;6.50;99.90
13982;DHT22;7065;50.880;5.502;2024-01-06T03:20:11;6.50;99.90
13982;DHT22;7065;50.880;5.502;2024-01-06T03:22:37;6.50;99.90
13982;DHT22;7065;50.880;5.502;2024-01-06T03:25:04;6.50;99.90
13982;DHT22;7065;50.880;5.502;2024-01-06T03:27:29;6.50;99.90
13982;DHT22;7065;50.880;5.502;2024-01-06T03:29:55;6.50;99.90
13982;DHT22;7065;50.880;5.502;2024-01-06T03:32:21;6.40;99.90
13982;DHT22;7065;50.880;5.502;2024-01-06T03:34:47;6.40;99.90
13982;DHT22;7065;50.880;5.502;2024-01-06T03:37:13;6.30;99.90
13982;DHT22;7065;50.880;5.502;2024-01-06T03:39:38;6.30;99.90
13982;DHT22;7065;50.880;5.502;2024-01-06T03:42:04;6.20;99.90
13982;DHT22;7065;50.880;5.502;2024-01-06T03:44:30;6.20;99.90
13982;DHT22;7065;50.880;5.502;2024-01-06T03:46:59;6.10;99.90
13982;DHT22;7065;50.880;5.502;2024-01-06T03:49:25;6.10;99.90
13982;DHT22;7065;50.880;5.502;2024-01-06T03:51:51;6.00;99.90
13982;DHT22;7065;50.880;5.502;2024-01-06T03:54:17;6.00;99.90
13982;DHT22;7065;50.880;5.502;2024-01-06T03:56:42;6.00;99.90
13982;DHT22;7065;50.880;5.502;2024-01-06T03:59:09;5.90;99.90
13982;DHT22;7065;50.880;5.502;2024-01-06T04:01:34;5.90;99.90
13982;DHT22;7065;50.880;5.502;2024-01-06T04:04:05;5.90;99.90
13982;DHT22;7065;50.880;5.502;2024-01-06T04:06:31;5.80;99.90
13982;DHT22;7065;50.880;5.502;2024-01-06T04:09:00;5.80;99.90
13982;DHT22;7065;50.880;5.502;2024-01-06T04:11:26;5.80;99.90
13982;DHT22;7065;50.880;5.502;2024-01-06T04:13:51;5.80;99.90
13982;DHT22;7065;50.880;5.502;2024-01-06T04:16:17;5.80;99.90
13982;DHT22;7065;50.880;5.502;2024-01-06T04:18:43;5.80;99.90
13982;DHT22;7065;50.880;5.502;2024-01-06T04:21:09;5.80;99.90
13982;DHT22;7065;50.880;5.502;2024-01-06T04:23:35;5.80;99.90
13982;DHT22;7065;50.880;5.502;2024-01-06T04:26:01;5.80;99.90
13982;DHT22;7065;50.880;5.502;2024-01-06T04:28:27;5.80;99.90
13982;DHT22;7065;50.880;5.502;2024-01-06T04:30:53;5.80;99.90
13982;DHT22;7065;50.880;5.502;2024-01-06T04:33:19;5.80;99.90
13982;DHT22;7065;50.880;5.502;2024-01-06T04:35:44;5.80;99.90
13982;DHT22;7065;50.880;5.502;2024-01-06T04:38:10;5.80;99.90
13982;DHT22;7065;50.880;5.502;2024-01-06T04:40:36;5.70;99.90
13982;DHT22;7065;50.880;5.502;2024-01-06T04:43:02;5.70;99.90
13982;DHT22;7065;50.880;5.502;2024-01-06T04:45:29;5.70;99.90
13982;DHT22;7065;50.880;5.502;2024-01-06T04:47:54;5.60;99.90
13982;DHT22;7065;50.880;5.502;2024-01-06T04:50:20;5.70;99.90
13982;DHT22;7065;50.880;5.502;2024-01-06T04:52:46;5.60;99.90
13982;DHT22;7065;50.880;5.502;2024-01-06T04:55:11;5.60;99.90
13982;DHT22;7065;50.880;5.502;2024-01-06T04:57:37;5.60;99.90
13982;DHT22;7065;50.880;5.502;2024-01-06T05:00:04;5.60;99.90
13982;DHT22;7065;50.880;5.502;2024-01-06T05:02:29;5.60;99.90
13982;DHT22;7065;50.880;5.502;2024-01-06T05:04:56;5.60;99.90
13982;DHT22;7065;50.880;5.502;2024-01-06T05:07:22;5.60;99.90
13982;DHT22;7065;50.880;5.502;2024-01-06T05:09:47;5.60;99.90
13982;DHT22;7065;50.880;5.502;2024-01-06T05:12:13;5.60;99.90
13982;DHT22;7065;50.880;5.502;2024-01-06T05:14:39;5.50;99.90
13982;DHT22;7065;50.880;5.502;2024-01-06T05:17:04;5.50;99.90
13982;DHT22;7065;50.880;5.502;2024-01-06T05:19:31;5.50;99.90
13982;DHT22;7065;50.880;5.502;2024-01-06T05:21:57;5.50;99.90
13982;DHT22;7065;50.880;5.502;2024-01-06T05:24:23;5.50;99.90
13982;DHT22;7065;50.880;5.502;2024-01-06T05:26:48;5.50;99.90
13982;DHT22;7065;50.880;5.502;2024-01-06T05:29:14;5.50;99.90
13982;DHT22;7065;50.880;5.502;2024-01-06T05:31:40;5.40;99.90
13982;DHT22;7065;50.880;5.502;2024-01-06T05:34:06;5.40;99.90
13982;DHT22;7065;50.880;5.502;2024-01-06T05:36:32;5.40;99.90
13982;DHT22;7065;50.880;5.502;2024-01-06T05:38:57;5.40;99.90
13982;DHT22;7065;50.880;5.502;2024-01-06T05:41:24;5.40;99.90
13982;DHT22;7065;50.880;5.502;2024-01-06T05:43:49;5.40;99.90
13982;DHT22;7065;50.880;5.502;2024-01-06T05:46:24;5.40;99.90
13982;DHT22;7065;50.880;5.502;2024-01-06T05:48:49;5.40;99.90
13982;DHT22;7065;50.880;5.502;2024-01-06T05:51:15;5.40;99.90
13982;DHT22;7065;50.880;5.502;2024-01-06T05:53:41;5.40;99.90
13982;DHT22;7065;50.880;5.502;2024-01-06T05:56:07;5.40;99.90
13982;DHT22;7065;50.880;5.502;2024-01-06T05:58:35;5.30;99.90
13982;DHT22;7065;50.880;5.502;2024-01-06T06:01:00;5.20;99.90
13982;DHT22;7065;50.880;5.502;2024-01-06T06:03:26;5.20;99.90
13982;DHT22;7065;50.880;5.502;2024-01-06T06:05:51;5.20;99.90
13982;DHT22;7065;50.880;5.502;2024-01-06T06:08:18;5.20;99.90
13982;DHT22;7065;50.880;5.502;2024-01-06T06:10:44;5.20;99.90
13982;DHT22;7065;50.880;5.502;2024-01-06T06:13:26;5.10;99.90
13982;DHT22;7065;50.880;5.502;2024-01-06T06:15:52;5.10;99.90
13982;DHT22;7065;50.880;5.502;2024-01-06T06:18:18;5.10;99.90
13982;DHT22;7065;50.880;5.502;2024-01-06T06:20:44;5.00;99.90
13982;DHT22;7065;50.880;5.502;2024-01-06T06:23:10;5.00;99.90
13982;DHT22;7065;50.880;5.502;2024-01-06T06:25:38;4.90;99.90
13982;DHT22;7065;50.880;5.502;2024-01-06T06:28:04;4.90;99.90
13982;DHT22;7065;50.880;5.502;2024-01-06T06:30:30;4.90;99.90
13982;DHT22;7065;50.880;5.502;2024-01-06T06:32:55;4.90;99.90
13982;DHT22;7065;50.880;5.502;2024-01-06T06:35:22;4.90;99.90
13982;DHT22;7065;50.880;5.502;2024-01-06T06:37:48;4.90;99.90
13982;DHT22;7065;50.880;5.502;2024-01-06T06:40:15;4.90;99.90
13982;DHT22;7065;50.880;5.502;2024-01-06T06:42:40;4.80;99.90
13982;DHT22;7065;50.880;5.502;2024-01-06T06:45:06;4.80;99.90
13982;DHT22;7065;50.880;5.502;2024-01-06T06:47:32;4.90;99.90
13982;DHT22;7065;50.880;5.502;2024-01-06T06:49:58;4.80;99.90
13982;DHT22;7065;50.880;5.502;2024-01-06T06:52:23;4.80;99.90
13982;DHT22;7065;50.880;5.502;2024-01-06T06:54:49;4.80;99.90
13982;DHT22;7065;50.880;5.502;2024-01-06T06:57:15;4.80;99.90
13982;DHT22;7065;50.880;5.502;2024-01-06T06:59:41;4.80;99.90
13982;DHT22;7065;50.880;5.502;2024-01-06T07:02:07;4.70;99.90
13982;DHT22;7065;50.880;5.502;2024-01-06T07:04:33;4.80;99.90
13982;DHT22;7065;50.880;5.502;2024-01-06T07:06:58;4.80;99.90
13982;DHT22;7065;50.880;5.502;2024-01-06T07:09:24;4.80;99.90
13982;DHT22;7065;50.880;5.502;2024-01-06T07:11:50;4.70;99.90
13982;DHT22;7065;50.880;5.502;2024-01-06T07:14:16;4.80;99.90
13982;DHT22;7065;50.880;5.502;2024-01-06T07:16:42;4.70;99.90
13982;DHT22;7065;50.880;5.502;2024-01-06T07:19:08;4.70;99.90
13982;DHT22;7065;50.880;5.502;2024-01-06T07:21:34;4.70;99.90
13982;DHT22;7065;50.880;5.502;2024-01-06T07:24:00;4.70;99.90
13982;DHT22;7065;50.880;5.502;2024-01-06T07:26:26;4.70;99.90
13982;DHT22;7065;50.880;5.502;2024-01-06T07:28:53;4.70;99.90
13982;DHT22;7065;50.880;5.502;2024-01-06T07:31:18;4.70;99.90
13982;DHT22;7065;50.880;5.502;2024-01-06T07:33:44;4.60;99.90
13982;DHT22;7065;50.880;5.502;2024-01-06T07:36:09;4.60;99.90
13982;DHT22;7065;50.880;5.502;2024-01-06T07:38:36;4.70;99.90
13982;DHT22;7065;50.880;5.502;2024-01-06T07:41:02;4.60;99.90
13982;DHT22;7065;50.880;5.502;2024-01-06T07:43:30;4.60;99.90
13982;DHT22;7065;50.880;5.502;2024-01-06T07:45:56;4.60;99.90
13982;DHT22;7065;50.880;5.502;2024-01-06T07:48:22;4.60;99.90
13982;DHT22;7065;50.880;5.502;2024-01-06T07:50:47;4.60;99.90
13982;DHT22;7065;50.880;5.502;2024-01-06T07:53:13;4.60;99.90
13982;DHT22;7065;50.880;5.502;2024-01-06T07:55:42;4.60;99.90
13982;DHT22;7065;50.880;5.502;2024-01-06T07:58:08;4.60;99.90
13982;DHT22;7065;50.880;5.502;2024-01-06T08:00:34;4.60;99.90
13982;DHT22;7065;50.880;5.502;2024-01-06T08:02:59;4.60;99.90
13982;DHT22;7065;50.880;5.502;2024-01-06T08:05:25;4.60;99.90
13982;DHT22;7065;50.880;5.502;2024-01-06T08:07:51;4.60;99.90
13982;DHT22;7065;50.880;5.502;2024-01-06T08:10:17;4.60;99.90
13982;DHT22;7065;50.880;5.502;2024-01-06T08:12:43;4.60;99.90
13982;DHT22;7065;50.880;5.502;2024-01-06T08:15:09;4.60;99.90
13982;DHT22;7065;50.880;5.502;2024-01-06T08:17:35;4.50;99.90
13982;DHT22;7065;50.880;5.502;2024-01-06T08:20:01;4.60;99.90
13982;DHT22;7065;50.880;5.502;2024-01-06T08:22:28;4.50;99.90
13982;DHT22;7065;50.880;5.502;2024-01-06T08:24:54;4.50;99.90
13982;DHT22;7065;50.880;5.502;2024-01-06T08:27:20;4.50;99.90
13982;DHT22;7065;50.880;5.502;2024-01-06T08:29:47;4.50;99.90
13982;DHT22;7065;50.880;5.502;2024-01-06T08:32:12;4.50;99.90
13982;DHT22;7065;50.880;5.502;2024-01-06T08:34:40;4.50;99.90
13982;DHT22;7065;50.880;5.502;2024-01-06T08:37:06;4.50;99.90
13982;DHT22;7065;50.880;5.502;2024-01-06T08:39:32;4.50;99.90
13982;DHT22;7065;50.880;5.502;2024-01-06T08:41:58;4.50;99.90
13982;DHT22;7065;50.880;5.502;2024-01-06T08:44:24;4.50;99.90
13982;DHT22;7065;50.880;5.502;2024-01-06T08:46:49;4.50;99.90
13982;DHT22;7065;50.880;5.502;2024-01-06T08:49:15;4.50;99.90
13982;DHT22;7065;50.880;5.502;2024-01-06T08:51:41;4.50;99.90
13982;DHT22;7065;50.880;5.502;2024-01-06T08:54:07;4.50;99.90
13982;DHT22;7065;50.880;5.502;2024-01-06T08:56:34;4.50;99.90
13982;DHT22;7065;50.880;5.502;2024-01-06T08:58:59;4.50;99.90
13982;DHT22;7065;50.880;5.502;2024-01-06T09:01:25;4.50;99.90
13982;DHT22;7065;50.880;5.502;2024-01-06T09:03:51;4.50;99.90
13982;DHT22;7065;50.880;5.502;2024-01-06T09:06:17;4.40;99.90
13982;DHT22;7065;50.880;5.502;2024-01-06T09:08:43;4.50;99.90
13982;DHT22;7065;50.880;5.502;2024-01-06T09:11:08;4.50;99.90
13982;DHT22;7065;50.880;5.502;2024-01-06T09:13:34;4.40;99.90
13982;DHT22;7065;50.880;5.502;2024-01-06T09:16:00;4.40;99.90
13982;DHT22;7065;50.880;5.502;2024-01-06T09:18:28;4.40;99.90
13982;DHT22;7065;50.880;5.502;2024-01-06T09:20:54;4.40;99.90
13982;DHT22;7065;50.880;5.502;2024-01-06T09:23:20;4.30;99.90
13982;DHT22;7065;50.880;5.502;2024-01-06T09:25:46;4.30;99.90
13982;DHT22;7065;50.880;5.502;2024-01-06T09:28:15;4.30;99.90
13982;DHT22;7065;50.880;5.502;2024-01-06T09:30:41;4.30;99.90
13982;DHT22;7065;50.880;5.502;2024-01-06T09:33:06;4.30;99.90
13982;DHT22;7065;50.880;5.502;2024-01-06T09:35:33;4.30;99.90
13982;DHT22;7065;50.880;5.502;2024-01-06T09:37:59;4.30;99.90
13982;DHT22;7065;50.880;5.502;2024-01-06T09:40:25;4.40;99.90
13982;DHT22;7065;50.880;5.502;2024-01-06T09:42:51;4.40;99.90
13982;DHT22;7065;50.880;5.502;2024-01-06T09:45:18;4.40;99.90
13982;DHT22;7065;50.880;5.502;2024-01-06T09:47:49;4.40;99.90
13982;DHT22;7065;50.880;5.502;2024-01-06T09:50:18;4.40;99.90
13982;DHT22;7065;50.880;5.502;2024-01-06T09:52:45;4.30;99.90
13982;DHT22;7065;50.880;5.502;2024-01-06T09:55:18;4.40;99.90
13982;DHT22;7065;50.880;5.502;2024-01-06T09:57:46;4.40;99.90
13982;DHT22;7065;50.880;5.502;2024-01-06T10:00:12;4.40;99.90
13982;DHT22;7065;50.880;5.502;2024-01-06T10:02:38;4.40;99.90
13982;DHT22;7065;50.880;5.502;2024-01-06T10:05:06;4.40;99.90
13982;DHT22;7065;50.880;5.502;2024-01-06T10:07:32;4.40;99.90
13982;DHT22;7065;50.880;5.502;2024-01-06T10:09:58;4.30;99.90
13982;DHT22;7065;50.880;5.502;2024-01-06T10:12:26;4.30;99.90
13982;DHT22;7065;50.880;5.502;2024-01-06T10:14:53;4.30;99.90
13982;DHT22;7065;50.880;5.502;2024-01-06T10:17:19;4.30;99.90
13982;DHT22;7065;50.880;5.502;2024-01-06T10:19:45;4.30;99.90
13982;DHT22;7065;50.880;5.502;2024-01-06T10:22:13;4.30;99.90
13982;DHT22;7065;50.880;5.502;2024-01-06T10:24:39;4.30;99.90
13982;DHT22;7065;50.880;5.502;2024-01-06T10:27:05;4.30;99.90
13982;DHT22;7065;50.880;5.502;2024-01-06T10:29:31;4.30;99.90
13982;DHT22;7065;50.880;5.502;2024-01-06T10:31:58;4.20;99.90
13982;DHT22;7065;50.880;5.502;2024-01-06T10:34:24;4.20;99.90
13982;DHT22;7065;50.880;5.502;2024-01-06T10:36:51;4.30;99.90
13982;DHT22;7065;50.880;5.502;2024-01-06T10:39:20;4.30;99.90
13982;DHT22;7065;50.880;5.502;2024-01-06T10:41:48;4.30;99.90
13982;DHT22;7065;50.880;5.502;2024-01-06T10:44:15;4.30;99.90
13982;DHT22;7065;50.880;5.502;2024-01-06T10:46:41;4.40;99.90
13982;DHT22;7065;50.880;5.502;2024-01-06T10:49:09;4.40;99.90
13982;DHT22;7065;50.880;5.502;2024-01-06T10:51:38;4.50;99.90
13982;DHT22;7065;50.880;5.502;2024-01-06T10:54:05;4.50;99.90
13982;DHT22;7065;50.880;5.502;2024-01-06T10:56:36;4.60;99.90
13982;DHT22;7065;50.880;5.502;2024-01-06T10:59:03;4.60;99.90
13982;DHT22;7065;50.880;5.502;2024-01-06T11:01:29;4.60;99.90
13982;DHT22;7065;50.880;5.502;2024-01-06T11:03:55;4.60;99.90
13982;DHT22;7065;50.880;5.502;2024-01-06T11:06:22;4.50;99.90
13982;DHT22;7065;50.880;5.502;2024-01-06T11:11:26;4.50;99.90
13982;DHT22;7065;50.880;5.502;2024-01-06T11:13:52;4.50;99.90
13982;DHT22;7065;50.880;5.502;2024-01-06T11:16:37;4.60;99.90
13982;DHT22;7065;50.880;5.502;2024-01-06T11:22:30;4.60;99.90
13982;DHT22;7065;50.880;5.502;2024-01-06T11:25:06;4.60;99.90
13982;DHT22;7065;50.880;5.502;2024-01-06T11:27:33;4.70;99.90
13982;DHT22;7065;50.880;5.502;2024-01-06T11:30:00;4.70;99.90
13982;DHT22;7065;50.880;5.502;2024-01-06T11:32:39;4.70;99.90
13982;DHT22;7065;50.880;5.502;2024-01-06T11:35:11;4.70;99.90
13982;DHT22;7065;50.880;5.502;2024-01-06T11:43:17;4.70;99.90
13982;DHT22;7065;50.880;5.502;2024-01-06T11:45:43;4.70;99.90
13982;DHT22;7065;50.880;5.502;2024-01-06T11:48:11;4.70;99.90
13982;DHT22;7065;50.880;5.502;2024-01-06T11:50:38;4.70;99.90
13982;DHT22;7065;50.880;5.502;2024-01-06T11:53:06;4.70;99.90
13982;DHT22;7065;50.880;5.502;2024-01-06T11:55:32;4.70;99.90
13982;DHT22;7065;50.880;5.502;2024-01-06T11:57:59;4.70;99.90
13982;DHT22;7065;50.880;5.502;2024-01-06T12:00:34;4.70;99.90
13982;DHT22;7065;50.880;5.502;2024-01-06T12:03:02;4.70;99.90
13982;DHT22;7065;50.880;5.502;2024-01-06T12:05:28;4.70;99.90
13982;DHT22;7065;50.880;5.502;2024-01-06T12:07:55;4.80;99.90
13982;DHT22;7065;50.880;5.502;2024-01-06T12:10:21;4.80;99.90
13982;DHT22;7065;50.880;5.502;2024-01-06T12:13:04;4.80;99.90
13982;DHT22;7065;50.880;5.502;2024-01-06T12:15:33;4.80;99.90
13982;DHT22;7065;50.880;5.502;2024-01-06T12:17:59;4.80;99.90
13982;DHT22;7065;50.880;5.502;2024-01-06T12:20:27;4.90;99.90
13982;DHT22;7065;50.880;5.502;2024-01-06T12:22:54;4.80;99.90
13982;DHT22;7065;50.880;5.502;2024-01-06T12:25:21;4.80;99.90
13982;DHT22;7065;50.880;5.502;2024-01-06T12:27:48;4.90;99.90
13982;DHT22;7065;50.880;5.502;2024-01-06T12:30:19;4.80;99.90
13982;DHT22;7065;50.880;5.502;2024-01-06T12:32:46;4.80;99.90
13982;DHT22;7065;50.880;5.502;2024-01-06T12:35:12;4.80;99.90
13982;DHT22;7065;50.880;5.502;2024-01-06T12:37:38;4.80;99.90
13982;DHT22;7065;50.880;5.502;2024-01-06T12:40:05;4.80;99.90
13982;DHT22;7065;50.880;5.502;2024-01-06T12:42:31;4.80;99.90
13982;DHT22;7065;50.880;5.502;2024-01-06T12:44:56;4.80;99.90
13982;DHT22;7065;50.880;5.502;2024-01-06T12:47:22;4.90;99.90
13982;DHT22;7065;50.880;5.502;2024-01-06T12:49:48;4.80;99.90
13982;DHT22;7065;50.880;5.502;2024-01-06T12:52:14;4.80;99.90
13982;DHT22;7065;50.880;5.502;2024-01-06T12:54:39;4.70;99.90
13982;DHT22;7065;50.880;5.502;2024-01-06T12:57:07;4.80;99.90
13982;DHT22;7065;50.880;5.502;2024-01-06T12:59:32;4.70;99.90
13982;DHT22;7065;50.880;5.502;2024-01-06T13:01:58;4.70;99.90
13982;DHT22;7065;50.880;5.502;2024-01-06T13:04:24;4.70;99.90
13982;DHT22;7065;50.880;5.502;2024-01-06T13:06:49;4.70;99.90
13982;DHT22;7065;50.880;5.502;2024-01-06T13:09:16;4.70;99.90
13982;DHT22;7065;50.880;5.502;2024-01-06T13:11:42;4.60;99.90
13982;DHT22;7065;50.880;5.502;2024-01-06T13:14:08;4.60;99.90
13982;DHT22;7065;50.880;5.502;2024-01-06T13:16:34;4.60;99.90
13982;DHT22;7065;50.880;5.502;2024-01-06T13:19:01;4.60;99.90
13982;DHT22;7065;50.880;5.502;2024-01-06T13:21:27;4.60;99.90
13982;DHT22;7065;50.880;5.502;2024-01-06T13:23:54;4.60;99.90
13982;DHT22;7065;50.880;5.502;2024-01-06T13:26:27;4.60;99.90
13982;DHT22;7065;50.880;5.502;2024-01-06T13:28:53;4.60;99.90
13982;DHT22;7065;50.880;5.502;2024-01-06T13:31:19;4.50;99.90
13982;DHT22;7065;50.880;5.502;2024-01-06T13:33:46;4.50;99.90
13982;DHT22;7065;50.880;5.502;2024-01-06T13:36:12;4.50;99.90
13982;DHT22;7065;50.880;5.502;2024-01-06T13:38:39;4.50;99.90
13982;DHT22;7065;50.880;5.502;2024-01-06T13:41:05;4.50;99.90
13982;DHT22;7065;50.880;5.502;2024-01-06T13:43:31;4.50;99.90
13982;DHT22;7065;50.880;5.502;2024-01-06T13:45:58;4.40;99.90
13982;DHT22;7065;50.880;5.502;2024-01-06T13:48:23;4.40;99.90
13982;DHT22;7065;50.880;5.502;2024-01-06T13:50:49;4.40;99.90
13982;DHT22;7065;50.880;5.502;2024-01-06T13:53:15;4.40;99.90
13982;DHT22;7065;50.880;5.502;2024-01-06T13:55:41;4.40;99.90
13982;DHT22;7065;50.880;5.502;2024-01-06T13:58:07;4.40;99.90
13982;DHT22;7065;50.880;5.502;2024-01-06T14:00:35;4.40;99.90
13982;DHT22;7065;50.880;5.502;2024-01-06T14:03:01;4.40;99.90
13982;DHT22;7065;50.880;5.502;2024-01-06T14:05:27;4.40;99.90
13982;DHT22;7065;50.880;5.502;2024-01-06T14:07:54;4.40;99.90
13982;DHT22;7065;50.880;5.502;2024-01-06T14:10:20;4.40;99.90
13982;DHT22;7065;50.880;5.502;2024-01-06T14:12:45;4.40;99.90
13982;DHT22;7065;50.880;5.502;2024-01-06T14:15:11;4.40;99.90
13982;DHT22;7065;50.880;5.502;2024-01-06T14:17:37;4.40;99.90
13982;DHT22;7065;50.880;5.502;2024-01-06T14:20:04;4.40;99.90
13982;DHT22;7065;50.880;5.502;2024-01-06T14:22:30;4.40;99.90
13982;DHT22;7065;50.880;5.502;2024-01-06T14:24:56;4.40;99.90
13982;DHT22;7065;50.880;5.502;2024-01-06T14:27:22;4.40;99.90
13982;DHT22;7065;50.880;5.502;2024-01-06T14:29:48;4.40;99.90
13982;DHT22;7065;50.880;5.502;2024-01-06T14:32:14;4.40;99.90
13982;DHT22;7065;50.880;5.502;2024-01-06T14:34:39;4.40;99.90
13982;DHT22;7065;50.880;5.502;2024-01-06T14:37:05;4.40;99.90
13982;DHT22;7065;50.880;5.502;2024-01-06T14:39:31;4.40;99.90
13982;DHT22;7065;50.880;5.502;2024-01-06T14:41:57;4.40;99.90
13982;DHT22;7065;50.880;5.502;2024-01-06T14:44:23;4.40;99.90
13982;DHT22;7065;50.880;5.502;2024-01-06T14:46:49;4.30;99.90
13982;DHT22;7065;50.880;5.502;2024-01-06T14:49:16;4.30;99.90
13982;DHT22;7065;50.880;5.502;2024-01-06T14:51:42;4.30;99.90
13982;DHT22;7065;50.880;5.502;2024-01-06T14:54:10;4.30;99.90
13982;DHT22;7065;50.880;5.502;2024-01-06T14:56:38;4.30;99.90
13982;DHT22;7065;50.880;5.502;2024-01-06T14:59:06;4.30;99.90
13982;DHT22;7065;50.880;5.502;2024-01-06T15:01:32;4.30;99.90
13982;DHT22;7065;50.880;5.502;2024-01-06T15:03:58;4.30;99.90
13982;DHT22;7065;50.880;5.502;2024-01-06T15:06:23;4.30;99.90
13982;DHT22;7065;50.880;5.502;2024-01-06T15:08:49;4.30;99.90
13982;DHT22;7065;50.880;5.502;2024-01-06T15:11:15;4.20;99.90
13982;DHT22;7065;50.880;5.502;2024-01-06T15:13:41;4.20;99.90
13982;DHT22;7065;50.880;5.502;2024-01-06T15:16:07;4.20;99.90
13982;DHT22;7065;50.880;5.502;2024-01-06T15:18:33;4.20;99.90
13982;DHT22;7065;50.880;5.502;2024-01-06T15:21:00;4.20;99.90
13982;DHT22;7065;50.880;5.502;2024-01-06T15:23:26;4.20;99.90
13982;DHT22;7065;50.880;5.502;2024-01-06T15:25:52;4.20;99.90
13982;DHT22;7065;50.880;5.502;2024-01-06T15:28:17;4.20;99.90
13982;DHT22;7065;50.880;5.502;2024-01-06T15:30:43;4.10;99.90
13982;DHT22;7065;50.880;5.502;2024-01-06T15:33:09;4.10;99.90
13982;DHT22;7065;50.880;5.502;2024-01-06T15:35:34;4.10;99.90
13982;DHT22;7065;50.880;5.502;2024-01-06T15:38:00;4.00;99.90
13982;DHT22;7065;50.880;5.502;2024-01-06T15:40:26;4.00;99.90
13982;DHT22;7065;50.880;5.502;2024-01-06T15:42:51;4.00;99.90
13982;DHT22;7065;50.880;5.502;2024-01-06T15:45:17;4.00;99.90
13982;DHT22;7065;50.880;5.502;2024-01-06T15:47:42;4.00;99.90
13982;DHT22;7065;50.880;5.502;2024-01-06T15:50:09;4.00;99.90
13982;DHT22;7065;50.880;5.502;2024-01-06T15:52:35;4.00;99.90
13982;DHT22;7065;50.880;5.502;2024-01-06T15:55:02;4.00;99.90
13982;DHT22;7065;50.880;5.502;2024-01-06T15:57:28;4.00;99.90
13982;DHT22;7065;50.880;5.502;2024-01-06T15:59:56;4.00;99.90
13982;DHT22;7065;50.880;5.502;2024-01-06T16:02:22;4.00;99.90
13982;DHT22;7065;50.880;5.502;2024-01-06T16:04:47;4.00;99.90
13982;DHT22;7065;50.880;5.502;2024-01-06T16:07:13;4.00;99.90